sensor_id;sensor_type;location;lat;lon;timestamp;P1;durP1;ratioP1;P2;durP2;ratioP2
12625;SDS011;6378;42.684;23.372;2024-03-02T00:00:51;41.33;;;24.37;;
12625;SDS011;6378;42.684;23.372;2024-03-02T00:03:17;39.77;;;23.33;;
12625;SDS011;6378;42.684;23.372;2024-03-02T00:05:43;40.33;;;24.30;;
12625;SDS011;6378;42.684;23.372;2024-03-02T00:08:13;42.20;;;24.00;;
12625;SDS011;6378;42.684;23.372;2024-03-02T00:10:50;40.93;;;24.47;;
12625;SDS011;6378;42.684;23.372;2024-03-02T00:13:16;39.40;;;22.63;;
12625;SDS011;6378;42.684;23.372;2024-03-02T00:15:48;36.27;;;22.37;;
12625;SDS011;6378;42.684;23.372;2024-03-02T00:18:21;40.10;;;22.73;;
12625;SDS011;6378;42.684;23.372;2024-03-02T00:20:52;42.93;;;24.27;;
12625;SDS011;6378;42.684;23.372;2024-03-02T00:23:20;42.73;;;24.20;;
12625;SDS011;6378;42.684;23.372;2024-03-02T00:25:48;41.23;;;24.27;;
12625;SDS011;6378;42.684;23.372;2024-03-02T00:28:24;38.37;;;23.83;;
12625;SDS011;6378;42.684;23.372;2024-03-02T00:33:18;41.70;;;24.60;;
12625;SDS011;6378;42.684;23.372;2024-03-02T00:35:45;38.10;;;24.20;;
12625;SDS011;6378;42.684;23.372;2024-03-02T00:38:11;36.03;;;21.93;;
12625;SDS011;6378;42.684;23.372;2024-03-02T00:40:40;40.23;;;22.60;;
12625;SDS011;6378;42.684;23.372;2024-03-02T00:43:18;39.43;;;24.73;;
12625;SDS011;6378;42.684;23.372;2024-03-02T00:45:46;39.30;;;21.93;;
12625;SDS011;6378;42.684;23.372;2024-03-02T00:48:11;42.43;;;24.63;;
12625;SDS011;6378;42.684;23.372;2024-03-02T00:50:41;37.77;;;23.23;;
12625;SDS011;6378;42.684;23.372;2024-03-02T00:53:09;40.70;;;23.07;;
12625;SDS011;6378;42.684;23.372;2024-03-02T00:55:37;38.50;;;23.53;;
12625;SDS011;6378;42.684;23.372;2024-03-02T00:58:03;38.93;;;24.33;;
12625;SDS011;6378;42.684;23.372;2024-03-02T01:00:28;40.63;;;23.97;;
12625;SDS011;6378;42.684;23.372;2024-03-02T01:02:54;39.77;;;23.33;;
12625;SDS011;6378;42.684;23.372;2024-03-02T01:05:19;41.57;;;24.10;;
12625;SDS011;6378;42.684;23.372;2024-03-02T01:07:45;37.80;;;24.17;;
12625;SDS011;6378;42.684;23.372;2024-03-02T01:10:11;41.63;;;25.20;;
12625;SDS011;6378;42.684;23.372;2024-03-02T01:12:36;41.27;;;25.07;;
12625;SDS011;6378;42.684;23.372;2024-03-02T01:15:02;38.67;;;23.90;;
12625;SDS011;6378;42.684;23.372;2024-03-02T01:17:31;37.37;;;24.00;;
12625;SDS011;6378;42.684;23.372;2024-03-02T01:19:56;39.70;;;23.47;;
12625;SDS011;6378;42.684;23.372;2024-03-02T01:22:22;41.37;;;23.80;;
12625;SDS011;6378;42.684;23.372;2024-03-02T01:24:50;35.83;;;22.40;;
12625;SDS011;6378;42.684;23.372;2024-03-02T01:27:16;39.73;;;23.43;;
12625;SDS011;6378;42.684;23.372;2024-03-02T01:29:41;38.43;;;24.27;;
12625;SDS011;6378;42.684;23.372;2024-03-02T01:32:07;37.47;;;23.80;;
12625;SDS011;6378;42.684;23.372;2024-03-02T01:34:32;36.40;;;23.50;;
12625;SDS011;6378;42.684;23.372;2024-03-02T01:36:58;40.90;;;24.53;;
12625;SDS011;6378;42.684;23.372;2024-03-02T01:39:23;40.00;;;24.07;;
12625;SDS011;6378;42.684;23.372;2024-03-02T01:41:49;41.23;;;22.90;;
12625;SDS011;6378;42.684;23.372;2024-03-02T01:44:14;40.73;;;23.77;;
12625;SDS011;6378;42.684;23.372;2024-03-02T01:46:40;39.57;;;23.53;;
12625;SDS011;6378;42.684;23.372;2024-03-02T01:49:05;38.13;;;24.00;;
12625;SDS011;6378;42.684;23.372;2024-03-02T01:51:31;38.80;;;24.00;;
12625;SDS011;6378;42.684;23.372;2024-03-02T01:53:57;36.40;;;22.90;;
12625;SDS011;6378;42.684;23.372;2024-03-02T01:56:22;39.70;;;23.27;;
12625;SDS011;6378;42.684;23.372;2024-03-02T01:58:48;38.47;;;23.50;;
12625;SDS011;6378;42.684;23.372;2024-03-02T02:01:13;41.80;;;24.27;;
12625;SDS011;6378;42.684;23.372;2024-03-02T02:03:39;37.47;;;22.67;;
12625;SDS011;6378;42.684;23.372;2024-03-02T02:06:05;39.63;;;23.93;;
12625;SDS011;6378;42.684;23.372;2024-03-02T02:08:32;40.83;;;24.00;;
12625;SDS011;6378;42.684;23.372;2024-03-02T02:10:58;39.00;;;23.70;;
12625;SDS011;6378;42.684;23.372;2024-03-02T02:13:24;40.27;;;24.47;;
12625;SDS011;6378;42.684;23.372;2024-03-02T02:15:49;40.87;;;24.23;;
12625;SDS011;6378;42.684;23.372;2024-03-02T02:18:15;43.23;;;24.80;;
12625;SDS011;6378;42.684;23.372;2024-03-02T02:20:41;46.33;;;26.07;;
12625;SDS011;6378;42.684;23.372;2024-03-02T02:23:06;40.47;;;24.87;;
12625;SDS011;6378;42.684;23.372;2024-03-02T02:25:34;41.87;;;24.60;;
12625;SDS011;6378;42.684;23.372;2024-03-02T02:28:00;39.80;;;23.47;;
12625;SDS011;6378;42.684;23.372;2024-03-02T02:30:29;44.10;;;25.40;;
12625;SDS011;6378;42.684;23.372;2024-03-02T02:32:56;45.50;;;25.97;;
12625;SDS011;6378;42.684;23.372;2024-03-02T02:35:21;44.60;;;25.00;;
12625;SDS011;6378;42.684;23.372;2024-03-02T02:37:49;45.00;;;25.87;;
12625;SDS011;6378;42.684;23.372;2024-03-02T02:40:15;48.03;;;25.70;;
12625;SDS011;6378;42.684;23.372;2024-03-02T02:42:41;44.67;;;25.67;;
12625;SDS011;6378;42.684;23.372;2024-03-02T02:45:07;46.07;;;26.37;;
12625;SDS011;6378;42.684;23.372;2024-03-02T02:47:33;43.73;;;25.87;;
12625;SDS011;6378;42.684;23.372;2024-03-02T02:50:04;46.37;;;26.47;;
12625;SDS011;6378;42.684;23.372;2024-03-02T02:52:32;41.70;;;24.97;;
12625;SDS011;6378;42.684;23.372;2024-03-02T02:54:58;42.90;;;24.40;;
12625;SDS011;6378;42.684;23.372;2024-03-02T02:57:24;43.10;;;25.30;;
12625;SDS011;6378;42.684;23.372;2024-03-02T02:59:50;45.23;;;25.40;;
12625;SDS011;6378;42.684;23.372;2024-03-02T03:02:15;43.30;;;25.87;;
12625;SDS011;6378;42.684;23.372;2024-03-02T03:04:41;45.33;;;24.97;;
12625;SDS011;6378;42.684;23.372;2024-03-02T03:07:06;42.40;;;25.33;;
12625;SDS011;6378;42.684;23.372;2024-03-02T03:09:32;43.70;;;25.37;;
12625;SDS011;6378;42.684;23.372;2024-03-02T03:11:57;47.80;;;26.73;;
12625;SDS011;6378;42.684;23.372;2024-03-02T03:14:23;42.20;;;24.67;;
12625;SDS011;6378;42.684;23.372;2024-03-02T03:16:48;44.03;;;25.03;;
12625;SDS011;6378;42.684;23.372;2024-03-02T03:19:15;47.33;;;26.70;;
12625;SDS011;6378;42.684;23.372;2024-03-02T03:21:40;41.97;;;25.53;;
12625;SDS011;6378;42.684;23.372;2024-03-02T03:24:06;42.10;;;26.07;;
12625;SDS011;6378;42.684;23.372;2024-03-02T03:26:31;40.27;;;24.13;;
12625;SDS011;6378;42.684;23.372;2024-03-02T03:28:57;48.70;;;25.83;;
12625;SDS011;6378;42.684;23.372;2024-03-02T03:31:23;45.13;;;24.83;;
12625;SDS011;6378;42.684;23.372;2024-03-02T03:33:48;43.87;;;25.23;;
12625;SDS011;6378;42.684;23.372;2024-03-02T03:36:14;46.27;;;25.63;;
12625;SDS011;6378;42.684;23.372;2024-03-02T03:38:39;42.70;;;23.87;;
12625;SDS011;6378;42.684;23.372;2024-03-02T03:41:04;39.33;;;24.43;;
12625;SDS011;6378;42.684;23.372;2024-03-02T03:43:30;42.87;;;25.37;;
12625;SDS011;6378;42.684;23.372;2024-03-02T03:45:56;41.23;;;23.20;;
12625;SDS011;6378;42.684;23.372;2024-03-02T03:48:21;44.37;;;25.63;;
12625;SDS011;6378;42.684;23.372;2024-03-02T03:50:47;44.50;;;24.77;;
12625;SDS011;6378;42.684;23.372;2024-03-02T03:53:12;44.77;;;25.60;;
12625;SDS011;6378;42.684;23.372;2024-03-02T03:55:39;44.53;;;26.17;;
12625;SDS011;6378;42.684;23.372;2024-03-02T03:58:05;43.43;;;24.53;;
12625;SDS011;6378;42.684;23.372;2024-03-02T04:00:30;47.20;;;25.80;;
12625;SDS011;6378;42.684;23.372;2024-03-02T04:02:56;41.97;;;24.63;;
12625;SDS011;6378;42.684;23.372;2024-03-02T04:05:21;48.13;;;25.90;;
12625;SDS011;6378;42.684;23.372;2024-03-02T04:07:47;42.80;;;25.60;;
12625;SDS011;6378;42.684;23.372;2024-03-02T04:10:12;40.90;;;23.93;;
12625;SDS011;6378;42.684;23.372;2024-03-02T04:12:38;43.60;;;21.70;;
12625;SDS011;6378;42.684;23.372;2024-03-02T04:15:07;39.57;;;24.37;;
12625;SDS011;6378;42.684;23.372;2024-03-02T04:17:33;46.47;;;25.43;;
12625;SDS011;6378;42.684;23.372;2024-03-02T04:20:00;42.37;;;25.17;;
12625;SDS011;6378;42.684;23.372;2024-03-02T04:22:27;44.73;;;24.43;;
12625;SDS011;6378;42.684;23.372;2024-03-02T04:24:53;42.90;;;25.03;;
12625;SDS011;6378;42.684;23.372;2024-03-02T04:27:19;42.77;;;24.47;;
12625;SDS011;6378;42.684;23.372;2024-03-02T04:29:44;44.00;;;24.20;;
12625;SDS011;6378;42.684;23.372;2024-03-02T04:32:10;44.00;;;24.53;;
12625;SDS011;6378;42.684;23.372;2024-03-02T04:34:35;44.23;;;24.50;;
12625;SDS011;6378;42.684;23.372;2024-03-02T04:37:01;45.47;;;25.80;;
12625;SDS011;6378;42.684;23.372;2024-03-02T04:39:26;41.30;;;23.93;;
12625;SDS011;6378;42.684;23.372;2024-03-02T04:41:52;45.37;;;25.57;;
12625;SDS011;6378;42.684;23.372;2024-03-02T04:44:17;47.27;;;24.43;;
12625;SDS011;6378;42.684;23.372;2024-03-02T04:46:43;48.13;;;25.43;;
12625;SDS011;6378;42.684;23.372;2024-03-02T04:49:08;43.23;;;24.77;;
12625;SDS011;6378;42.684;23.372;2024-03-02T04:51:34;44.53;;;25.27;;
12625;SDS011;6378;42.684;23.372;2024-03-02T04:53:59;46.17;;;25.87;;
12625;SDS011;6378;42.684;23.372;2024-03-02T04:56:25;43.47;;;25.27;;
12625;SDS011;6378;42.684;23.372;2024-03-02T04:58:56;46.00;;;23.87;;
12625;SDS011;6378;42.684;23.372;2024-03-02T05:01:21;46.33;;;25.20;;
12625;SDS011;6378;42.684;23.372;2024-03-02T05:03:47;49.07;;;27.50;;
12625;SDS011;6378;42.684;23.372;2024-03-02T05:06:12;47.37;;;27.10;;
12625;SDS011;6378;42.684;23.372;2024-03-02T05:08:38;47.33;;;25.90;;
12625;SDS011;6378;42.684;23.372;2024-03-02T05:11:03;49.57;;;27.10;;
12625;SDS011;6378;42.684;23.372;2024-03-02T05:13:47;49.50;;;26.77;;
12625;SDS011;6378;42.684;23.372;2024-03-02T05:16:13;49.30;;;27.43;;
12625;SDS011;6378;42.684;23.372;2024-03-02T05:18:39;48.23;;;26.93;;
12625;SDS011;6378;42.684;23.372;2024-03-02T05:21:04;49.40;;;27.13;;
12625;SDS011;6378;42.684;23.372;2024-03-02T05:23:30;50.13;;;26.53;;
12625;SDS011;6378;42.684;23.372;2024-03-02T05:25:56;49.83;;;26.97;;
12625;SDS011;6378;42.684;23.372;2024-03-02T05:28:21;46.60;;;27.03;;
12625;SDS011;6378;42.684;23.372;2024-03-02T05:30:47;50.40;;;26.83;;
12625;SDS011;6378;42.684;23.372;2024-03-02T05:33:12;48.23;;;27.00;;
12625;SDS011;6378;42.684;23.372;2024-03-02T05:35:38;51.10;;;27.40;;
12625;SDS011;6378;42.684;23.372;2024-03-02T05:38:03;49.80;;;26.37;;
12625;SDS011;6378;42.684;23.372;2024-03-02T05:40:29;52.00;;;27.63;;
12625;SDS011;6378;42.684;23.372;2024-03-02T05:42:54;47.90;;;27.53;;
12625;SDS011;6378;42.684;23.372;2024-03-02T05:45:19;50.47;;;27.93;;
12625;SDS011;6378;42.684;23.372;2024-03-02T05:47:45;51.40;;;28.40;;
12625;SDS011;6378;42.684;23.372;2024-03-02T05:50:10;56.63;;;30.33;;
12625;SDS011;6378;42.684;23.372;2024-03-02T05:52:36;51.27;;;28.13;;
12625;SDS011;6378;42.684;23.372;2024-03-02T05:55:01;54.20;;;30.03;;
12625;SDS011;6378;42.684;23.372;2024-03-02T05:57:27;53.83;;;31.30;;
12625;SDS011;6378;42.684;23.372;2024-03-02T06:00:12;55.60;;;31.37;;
12625;SDS011;6378;42.684;23.372;2024-03-02T06:02:41;60.70;;;32.30;;
12625;SDS011;6378;42.684;23.372;2024-03-02T06:05:07;57.90;;;31.33;;
12625;SDS011;6378;42.684;23.372;2024-03-02T06:07:32;57.47;;;31.37;;
12625;SDS011;6378;42.684;23.372;2024-03-02T06:09:58;55.70;;;29.97;;
12625;SDS011;6378;42.684;23.372;2024-03-02T06:12:24;57.87;;;30.47;;
12625;SDS011;6378;42.684;23.372;2024-03-02T06:14:49;58.13;;;29.63;;
12625;SDS011;6378;42.684;23.372;2024-03-02T06:17:15;60.80;;;29.10;;
12625;SDS011;6378;42.684;23.372;2024-03-02T06:19:40;51.80;;;29.73;;
12625;SDS011;6378;42.684;23.372;2024-03-02T06:22:06;55.60;;;29.40;;
12625;SDS011;6378;42.684;23.372;2024-03-02T06:24:31;52.97;;;28.30;;
12625;SDS011;6378;42.684;23.372;2024-03-02T06:26:57;57.80;;;30.27;;
12625;SDS011;6378;42.684;23.372;2024-03-02T06:29:22;60.30;;;31.67;;
12625;SDS011;6378;42.684;23.372;2024-03-02T06:31:47;55.50;;;28.20;;
12625;SDS011;6378;42.684;23.372;2024-03-02T06:34:13;62.57;;;31.07;;
12625;SDS011;6378;42.684;23.372;2024-03-02T06:36:38;59.97;;;30.00;;
12625;SDS011;6378;42.684;23.372;2024-03-02T06:39:05;59.80;;;30.67;;
12625;SDS011;6378;42.684;23.372;2024-03-02T06:41:31;60.53;;;30.03;;
12625;SDS011;6378;42.684;23.372;2024-03-02T06:43:56;57.93;;;30.13;;
12625;SDS011;6378;42.684;23.372;2024-03-02T06:46:25;59.57;;;30.23;;
12625;SDS011;6378;42.684;23.372;2024-03-02T06:48:50;61.47;;;30.80;;
12625;SDS011;6378;42.684;23.372;2024-03-02T06:51:16;63.47;;;31.00;;
12625;SDS011;6378;42.684;23.372;2024-03-02T06:53:41;56.23;;;28.50;;
12625;SDS011;6378;42.684;23.372;2024-03-02T06:56:07;55.40;;;28.97;;
12625;SDS011;6378;42.684;23.372;2024-03-02T06:58:33;56.60;;;28.33;;
12625;SDS011;6378;42.684;23.372;2024-03-02T07:00:58;58.67;;;30.07;;
12625;SDS011;6378;42.684;23.372;2024-03-02T07:03:25;51.80;;;27.53;;
12625;SDS011;6378;42.684;23.372;2024-03-02T07:05:51;55.97;;;28.00;;
12625;SDS011;6378;42.684;23.372;2024-03-02T07:08:16;56.60;;;29.77;;
12625;SDS011;6378;42.684;23.372;2024-03-02T07:10:42;59.80;;;29.17;;
12625;SDS011;6378;42.684;23.372;2024-03-02T07:13:08;54.63;;;28.40;;
12625;SDS011;6378;42.684;23.372;2024-03-02T07:15:33;57.90;;;28.77;;
12625;SDS011;6378;42.684;23.372;2024-03-02T07:18:17;56.40;;;28.63;;
12625;SDS011;6378;42.684;23.372;2024-03-02T07:20:43;53.73;;;27.37;;
12625;SDS011;6378;42.684;23.372;2024-03-02T07:23:08;57.27;;;29.93;;
12625;SDS011;6378;42.684;23.372;2024-03-02T07:25:34;57.50;;;31.53;;
12625;SDS011;6378;42.684;23.372;2024-03-02T07:27:59;60.00;;;30.93;;
12625;SDS011;6378;42.684;23.372;2024-03-02T07:30:25;56.27;;;29.53;;
12625;SDS011;6378;42.684;23.372;2024-03-02T07:32:50;58.13;;;29.50;;
12625;SDS011;6378;42.684;23.372;2024-03-02T07:35:16;54.97;;;28.80;;
12625;SDS011;6378;42.684;23.372;2024-03-02T07:37:43;55.20;;;28.47;;
12625;SDS011;6378;42.684;23.372;2024-03-02T07:40:09;56.20;;;28.40;;
12625;SDS011;6378;42.684;23.372;2024-03-02T07:42:38;55.17;;;28.53;;
12625;SDS011;6378;42.684;23.372;2024-03-02T07:45:05;54.37;;;27.60;;
12625;SDS011;6378;42.684;23.372;2024-03-02T07:47:32;54.00;;;28.37;;
12625;SDS011;6378;42.684;23.372;2024-03-02T07:49:58;52.13;;;27.50;;
12625;SDS011;6378;42.684;23.372;2024-03-02T07:52:24;52.83;;;26.80;;
12625;SDS011;6378;42.684;23.372;2024-03-02T07:54:50;53.17;;;27.70;;
12625;SDS011;6378;42.684;23.372;2024-03-02T07:57:16;55.83;;;27.30;;
12625;SDS011;6378;42.684;23.372;2024-03-02T07:59:41;50.53;;;27.13;;
12625;SDS011;6378;42.684;23.372;2024-03-02T08:02:08;54.97;;;28.67;;
12625;SDS011;6378;42.684;23.372;2024-03-02T08:04:33;51.83;;;27.07;;
12625;SDS011;6378;42.684;23.372;2024-03-02T08:06:59;55.73;;;28.37;;
12625;SDS011;6378;42.684;23.372;2024-03-02T08:09:25;58.17;;;28.70;;
12625;SDS011;6378;42.684;23.372;2024-03-02T08:11:51;61.00;;;29.87;;
12625;SDS011;6378;42.684;23.372;2024-03-02T08:14:16;57.13;;;34.30;;
12625;SDS011;6378;42.684;23.372;2024-03-02T08:16:42;54.47;;;29.40;;
12625;SDS011;6378;42.684;23.372;2024-03-02T08:19:07;51.80;;;29.23;;
12625;SDS011;6378;42.684;23.372;2024-03-02T08:21:34;50.47;;;26.53;;
12625;SDS011;6378;42.684;23.372;2024-03-02T08:24:01;49.30;;;28.80;;
12625;SDS011;6378;42.684;23.372;2024-03-02T08:26:27;58.17;;;29.23;;
12625;SDS011;6378;42.684;23.372;2024-03-02T08:28:57;53.87;;;28.60;;
12625;SDS011;6378;42.684;23.372;2024-03-02T08:31:23;56.77;;;28.90;;
12625;SDS011;6378;42.684;23.372;2024-03-02T08:33:48;55.63;;;29.10;;
12625;SDS011;6378;42.684;23.372;2024-03-02T08:36:14;55.30;;;29.30;;
12625;SDS011;6378;42.684;23.372;2024-03-02T08:38:40;53.03;;;27.90;;
12625;SDS011;6378;42.684;23.372;2024-03-02T08:41:06;57.00;;;35.73;;
12625;SDS011;6378;42.684;23.372;2024-03-02T08:43:32;59.43;;;31.30;;
12625;SDS011;6378;42.684;23.372;2024-03-02T08:45:58;64.10;;;35.80;;
12625;SDS011;6378;42.684;23.372;2024-03-02T08:48:23;59.03;;;33.70;;
12625;SDS011;6378;42.684;23.372;2024-03-02T08:50:49;56.63;;;31.53;;
12625;SDS011;6378;42.684;23.372;2024-03-02T08:53:15;63.53;;;35.07;;
12625;SDS011;6378;42.684;23.372;2024-03-02T08:55:45;56.30;;;32.03;;
12625;SDS011;6378;42.684;23.372;2024-03-02T08:58:11;53.00;;;28.40;;
12625;SDS011;6378;42.684;23.372;2024-03-02T09:00:36;54.13;;;29.20;;
12625;SDS011;6378;42.684;23.372;2024-03-02T09:03:02;53.70;;;30.37;;
12625;SDS011;6378;42.684;23.372;2024-03-02T09:05:28;49.87;;;27.73;;
12625;SDS011;6378;42.684;23.372;2024-03-02T09:07:53;53.57;;;29.87;;
12625;SDS011;6378;42.684;23.372;2024-03-02T09:10:19;58.10;;;30.07;;
12625;SDS011;6378;42.684;23.372;2024-03-02T09:12:45;49.20;;;26.47;;
12625;SDS011;6378;42.684;23.372;2024-03-02T09:15:10;44.60;;;24.87;;
12625;SDS011;6378;42.684;23.372;2024-03-02T09:17:36;43.80;;;24.33;;
12625;SDS011;6378;42.684;23.372;2024-03-02T09:20:01;47.33;;;25.87;;
12625;SDS011;6378;42.684;23.372;2024-03-02T09:22:29;44.93;;;26.00;;
12625;SDS011;6378;42.684;23.372;2024-03-02T09:24:55;44.13;;;26.43;;
12625;SDS011;6378;42.684;23.372;2024-03-02T09:27:21;47.37;;;25.20;;
12625;SDS011;6378;42.684;23.372;2024-03-02T09:29:47;44.07;;;25.40;;
12625;SDS011;6378;42.684;23.372;2024-03-02T09:32:13;48.00;;;25.17;;
12625;SDS011;6378;42.684;23.372;2024-03-02T09:34:39;41.20;;;24.73;;
12625;SDS011;6378;42.684;23.372;2024-03-02T09:37:05;49.85;;;30.25;;
12625;SDS011;6378;42.684;23.372;2024-03-02T09:39:31;46.00;;;27.20;;
12625;SDS011;6378;42.684;23.372;2024-03-02T09:41:57;46.70;;;26.13;;
12625;SDS011;6378;42.684;23.372;2024-03-02T09:44:24;68.87;;;40.83;;
12625;SDS011;6378;42.684;23.372;2024-03-02T09:46:51;62.80;;;37.03;;
12625;SDS011;6378;42.684;23.372;2024-03-02T09:49:17;60.00;;;34.80;;
12625;SDS011;6378;42.684;23.372;2024-03-02T09:51:49;64.90;;;39.07;;
12625;SDS011;6378;42.684;23.372;2024-03-02T09:54:18;53.43;;;30.67;;
12625;SDS011;6378;42.684;23.372;2024-03-02T09:56:44;54.80;;;28.87;;
12625;SDS011;6378;42.684;23.372;2024-03-02T09:59:09;49.60;;;29.03;;
12625;SDS011;6378;42.684;23.372;2024-03-02T10:01:35;45.23;;;26.67;;
12625;SDS011;6378;42.684;23.372;2024-03-02T10:04:01;47.23;;;27.10;;
12625;SDS011;6378;42.684;23.372;2024-03-02T10:06:29;43.73;;;25.33;;
12625;SDS011;6378;42.684;23.372;2024-03-02T10:08:55;41.70;;;25.03;;
12625;SDS011;6378;42.684;23.372;2024-03-02T10:14:07;42.60;;;24.87;;
12625;SDS011;6378;42.684;23.372;2024-03-02T10:16:41;45.47;;;26.27;;
12625;SDS011;6378;42.684;23.372;2024-03-02T10:21:48;48.10;;;26.57;;
12625;SDS011;6378;42.684;23.372;2024-03-02T10:24:15;42.33;;;25.10;;
12625;SDS011;6378;42.684;23.372;2024-03-02T10:26:41;44.90;;;26.17;;
12625;SDS011;6378;42.684;23.372;2024-03-02T10:29:10;40.03;;;24.13;;
12625;SDS011;6378;42.684;23.372;2024-03-02T10:31:40;39.30;;;24.63;;
12625;SDS011;6378;42.684;23.372;2024-03-02T10:34:07;37.23;;;22.63;;
12625;SDS011;6378;42.684;23.372;2024-03-02T10:36:36;42.70;;;24.33;;
12625;SDS011;6378;42.684;23.372;2024-03-02T10:39:03;37.60;;;22.93;;
12625;SDS011;6378;42.684;23.372;2024-03-02T10:41:32;41.47;;;23.60;;
12625;SDS011;6378;42.684;23.372;2024-03-02T10:44:02;41.03;;;23.97;;
12625;SDS011;6378;42.684;23.372;2024-03-02T10:46:29;36.77;;;22.50;;
12625;SDS011;6378;42.684;23.372;2024-03-02T10:48:59;35.33;;;22.47;;
12625;SDS011;6378;42.684;23.372;2024-03-02T10:51:26;33.67;;;20.53;;
12625;SDS011;6378;42.684;23.372;2024-03-02T10:54:02;38.50;;;23.00;;
12625;SDS011;6378;42.684;23.372;2024-03-02T10:56:32;37.23;;;23.00;;
12625;SDS011;6378;42.684;23.372;2024-03-02T10:59:05;39.20;;;23.17;;
12625;SDS011;6378;42.684;23.372;2024-03-02T11:01:32;40.97;;;24.97;;
12625;SDS011;6378;42.684;23.372;2024-03-02T11:03:58;37.20;;;22.07;;
12625;SDS011;6378;42.684;23.372;2024-03-02T11:06:28;39.80;;;22.03;;
12625;SDS011;6378;42.684;23.372;2024-03-02T11:08:55;35.23;;;20.07;;
12625;SDS011;6378;42.684;23.372;2024-03-02T11:11:44;34.73;;;20.47;;
12625;SDS011;6378;42.684;23.372;2024-03-02T11:14:16;37.10;;;21.80;;
12625;SDS011;6378;42.684;23.372;2024-03-02T11:16:46;32.50;;;19.67;;
12625;SDS011;6378;42.684;23.372;2024-03-02T11:19:13;31.77;;;19.80;;
12625;SDS011;6378;42.684;23.372;2024-03-02T11:21:40;39.33;;;22.70;;
12625;SDS011;6378;42.684;23.372;2024-03-02T11:26:47;45.10;;;24.67;;
12625;SDS011;6378;42.684;23.372;2024-03-02T11:32:01;39.30;;;22.97;;
12625;SDS011;6378;42.684;23.372;2024-03-02T11:34:31;42.00;;;25.30;;
12625;SDS011;6378;42.684;23.372;2024-03-02T11:37:03;42.27;;;24.73;;
12625;SDS011;6378;42.684;23.372;2024-03-02T11:39:29;37.20;;;21.53;;
12625;SDS011;6378;42.684;23.372;2024-03-02T11:41:56;33.97;;;22.23;;
12625;SDS011;6378;42.684;23.372;2024-03-02T11:44:28;34.93;;;21.10;;
12625;SDS011;6378;42.684;23.372;2024-03-02T11:47:05;30.83;;;19.93;;
12625;SDS011;6378;42.684;23.372;2024-03-02T11:49:38;27.53;;;15.97;;
12625;SDS011;6378;42.684;23.372;2024-03-02T11:52:04;27.97;;;16.43;;
12625;SDS011;6378;42.684;23.372;2024-03-02T11:54:32;25.90;;;16.37;;
12625;SDS011;6378;42.684;23.372;2024-03-02T11:57:02;30.13;;;18.27;;
12625;SDS011;6378;42.684;23.372;2024-03-02T11:59:31;26.23;;;16.90;;
12625;SDS011;6378;42.684;23.372;2024-03-02T12:01:57;28.53;;;18.07;;
12625;SDS011;6378;42.684;23.372;2024-03-02T12:04:23;29.47;;;20.00;;
12625;SDS011;6378;42.684;23.372;2024-03-02T12:06:56;25.83;;;15.90;;
12625;SDS011;6378;42.684;23.372;2024-03-02T12:09:28;26.75;;;17.40;;
12625;SDS011;6378;42.684;23.372;2024-03-02T12:12:01;26.73;;;17.90;;
12625;SDS011;6378;42.684;23.372;2024-03-02T12:14:34;26.33;;;18.53;;
12625;SDS011;6378;42.684;23.372;2024-03-02T12:17:06;27.43;;;17.10;;
12625;SDS011;6378;42.684;23.372;2024-03-02T12:19:32;23.83;;;17.17;;
12625;SDS011;6378;42.684;23.372;2024-03-02T12:21:58;26.73;;;17.70;;
12625;SDS011;6378;42.684;23.372;2024-03-02T12:24:26;24.93;;;17.37;;
12625;SDS011;6378;42.684;23.372;2024-03-02T12:26:53;26.50;;;16.87;;
12625;SDS011;6378;42.684;23.372;2024-03-02T12:29:20;22.43;;;16.53;;
12625;SDS011;6378;42.684;23.372;2024-03-02T12:31:49;28.43;;;19.03;;
12625;SDS011;6378;42.684;23.372;2024-03-02T12:34:16;29.53;;;19.17;;
12625;SDS011;6378;42.684;23.372;2024-03-02T12:36:42;25.73;;;17.87;;
12625;SDS011;6378;42.684;23.372;2024-03-02T12:39:09;26.40;;;17.67;;
12625;SDS011;6378;42.684;23.372;2024-03-02T12:41:37;26.30;;;17.27;;
12625;SDS011;6378;42.684;23.372;2024-03-02T12:44:03;23.83;;;16.07;;
12625;SDS011;6378;42.684;23.372;2024-03-02T12:46:30;25.97;;;17.30;;
12625;SDS011;6378;42.684;23.372;2024-03-02T12:48:56;24.97;;;18.23;;
12625;SDS011;6378;42.684;23.372;2024-03-02T12:51:22;23.13;;;16.40;;
12625;SDS011;6378;42.684;23.372;2024-03-02T12:53:54;22.77;;;15.70;;
12625;SDS011;6378;42.684;23.372;2024-03-02T12:56:20;22.07;;;15.07;;
12625;SDS011;6378;42.684;23.372;2024-03-02T12:58:46;20.80;;;14.73;;
12625;SDS011;6378;42.684;23.372;2024-03-02T13:01:14;25.20;;;16.80;;
12625;SDS011;6378;42.684;23.372;2024-03-02T13:03:41;25.33;;;16.43;;
12625;SDS011;6378;42.684;23.372;2024-03-02T13:06:07;24.37;;;17.60;;
12625;SDS011;6378;42.684;23.372;2024-03-02T13:08:33;26.70;;;19.17;;
12625;SDS011;6378;42.684;23.372;2024-03-02T13:10:59;28.33;;;19.00;;
12625;SDS011;6378;42.684;23.372;2024-03-02T13:13:24;24.77;;;18.23;;
12625;SDS011;6378;42.684;23.372;2024-03-02T13:15:50;26.90;;;17.47;;
12625;SDS011;6378;42.684;23.372;2024-03-02T13:18:21;24.70;;;16.33;;
12625;SDS011;6378;42.684;23.372;2024-03-02T13:20:47;29.57;;;19.90;;
12625;SDS011;6378;42.684;23.372;2024-03-02T13:23:12;25.20;;;17.63;;
12625;SDS011;6378;42.684;23.372;2024-03-02T13:25:38;23.08;;;17.50;;
12625;SDS011;6378;42.684;23.372;2024-03-02T13:28:03;24.33;;;17.33;;
12625;SDS011;6378;42.684;23.372;2024-03-02T13:30:29;26.07;;;17.57;;
12625;SDS011;6378;42.684;23.372;2024-03-02T13:32:54;24.40;;;17.83;;
12625;SDS011;6378;42.684;23.372;2024-03-02T13:35:20;22.00;;;16.87;;
12625;SDS011;6378;42.684;23.372;2024-03-02T13:37:45;24.60;;;16.98;;
12625;SDS011;6378;42.684;23.372;2024-03-02T13:40:11;25.00;;;16.10;;
12625;SDS011;6378;42.684;23.372;2024-03-02T13:42:41;23.95;;;16.05;;
12625;SDS011;6378;42.684;23.372;2024-03-02T13:45:07;25.13;;;16.13;;
12625;SDS011;6378;42.684;23.372;2024-03-02T13:47:33;23.48;;;15.77;;
12625;SDS011;6378;42.684;23.372;2024-03-02T13:52:43;20.13;;;15.73;;
12625;SDS011;6378;42.684;23.372;2024-03-02T13:55:08;21.50;;;16.38;;
12625;SDS011;6378;42.684;23.372;2024-03-02T13:57:34;23.05;;;16.90;;
12625;SDS011;6378;42.684;23.372;2024-03-02T13:59:59;24.73;;;16.15;;
12625;SDS011;6378;42.684;23.372;2024-03-02T14:02:27;24.17;;;17.17;;
12625;SDS011;6378;42.684;23.372;2024-03-02T14:04:53;25.77;;;17.40;;
12625;SDS011;6378;42.684;23.372;2024-03-02T14:07:19;22.42;;;16.35;;
12625;SDS011;6378;42.684;23.372;2024-03-02T14:09:44;25.02;;;17.50;;
12625;SDS011;6378;42.684;23.372;2024-03-02T14:12:10;23.65;;;16.98;;
12625;SDS011;6378;42.684;23.372;2024-03-02T14:14:38;28.33;;;18.23;;
12625;SDS011;6378;42.684;23.372;2024-03-02T14:17:04;24.92;;;18.58;;
12625;SDS011;6378;42.684;23.372;2024-03-02T14:19:31;24.85;;;17.20;;
12625;SDS011;6378;42.684;23.372;2024-03-02T14:21:57;27.52;;;18.00;;
12625;SDS011;6378;42.684;23.372;2024-03-02T14:24:22;23.42;;;17.13;;
12625;SDS011;6378;42.684;23.372;2024-03-02T14:26:51;27.45;;;18.15;;
12625;SDS011;6378;42.684;23.372;2024-03-02T14:29:17;24.33;;;18.33;;
12625;SDS011;6378;42.684;23.372;2024-03-02T14:31:43;26.30;;;18.38;;
12625;SDS011;6378;42.684;23.372;2024-03-02T14:34:09;24.98;;;18.40;;